Time;durP1;ratioP1;P1;durP2;ratioP2;P2;SDS_P1;SDS_P2;PMS_P1;PMS_P2;Temp;Humidity;BMP_temperature;BMP_pressure;BME280_temperature;BME280_humidity;BME280_pressure;Samples;Min_cycle;Max_cycle;Signal;HPM_P1;HPM_P2
2024/02/25 00:00:27;;;;;;;1.73;1.62;;;3.50;99.90;;;;;;476648;249;27529;-74
2024/02/25 00:02:29;;;;;;;2.30;2.10;;;3.40;99.90;;;;;;476643;249;27577;-75
2024/02/25 00:04:30;;;;;;;3.45;2.20;;;3.40;99.90;;;;;;476658;249;27530;-71
2024/02/25 00:06:31;;;;;;;6.90;2.33;;;3.40;99.90;;;;;;476621;249;27668;-71
2024/02/25 00:08:32;;;;;;;2.72;1.77;;;3.40;99.90;;;;;;476627;249;27589;-72
2024/02/25 00:10:34;;;;;;;4.28;2.50;;;3.40;99.90;;;;;;476644;249;27999;-71
2024/02/25 00:12:35;;;;;;;4.05;2.20;;;3.40;99.90;;;;;;476598;249;28181;-71
2024/02/25 00:14:36;;;;;;;5.95;2.92;;;3.40;99.90;;;;;;476665;249;28073;-71
2024/02/25 00:16:38;;;;;;;3.65;2.30;;;3.40;99.90;;;;;;476586;249;28037;-74
2024/02/25 00:18:39;;;;;;;2.33;2.22;;;3.50;99.90;;;;;;476593;249;27593;-72
2024/02/25 00:20:40;;;;;;;2.42;2.22;;;3.50;99.90;;;;;;476681;249;27583;-71
2024/02/25 00:22:41;;;;;;;2.55;2.35;;;3.50;99.90;;;;;;476630;249;27565;-74
2024/02/25 00:24:43;;;;;;;3.17;2.40;;;3.50;99.90;;;;;;476613;249;27538;-74
2024/02/25 00:26:44;;;;;;;2.33;2.12;;;3.50;99.90;;;;;;476606;249;27557;-71
2024/02/25 00:28:45;;;;;;;2.42;2.20;;;3.50;99.90;;;;;;476672;249;27581;-72
2024/02/25 00:30:46;;;;;;;2.40;2.20;;;3.60;99.90;;;;;;476681;249;27519;-71
2024/02/25 00:32:48;;;;;;;2.22;2.08;;;3.60;99.90;;;;;;476425;249;28182;-71
2024/02/25 00:34:49;;;;;;;2.42;2.22;;;3.70;99.90;;;;;;476704;249;28797;-70
2024/02/25 00:36:50;;;;;;;2.60;2.20;;;3.70;99.90;;;;;;476715;249;27977;-70
2024/02/25 00:38:51;;;;;;;2.30;1.95;;;3.70;99.90;;;;;;476728;249;29216;-72
2024/02/25 00:40:53;;;;;;;2.95;2.42;;;3.70;99.90;;;;;;476664;249;27603;-71
2024/02/25 00:42:54;;;;;;;2.10;1.90;;;3.80;99.90;;;;;;476499;249;27554;-71
2024/02/25 00:44:55;;;;;;;2.15;2.00;;;3.80;99.90;;;;;;476759;249;27573;-74
2024/02/25 00:46:56;;;;;;;2.47;2.28;;;3.80;99.90;;;;;;476665;249;27587;-71
2024/02/25 00:48:59;;;;;;;2.65;2.10;;;3.80;99.90;;;;;;476687;249;27602;-71
2024/02/25 00:50:59;;;;;;;2.28;2.12;;;3.90;99.90;;;;;;476503;249;27562;-71
2024/02/25 00:53:00;;;;;;;3.17;2.12;;;3.80;99.90;;;;;;476657;249;27546;-72
2024/02/25 00:55:04;;;;;;;2.72;2.53;;;3.80;99.90;;;;;;476719;249;27534;-73
2024/02/25 00:57:04;;;;;;;2.58;2.25;;;3.80;99.90;;;;;;476532;249;27574;-71
2024/02/25 00:59:06;;;;;;;2.40;2.20;;;3.80;99.90;;;;;;476738;249;28037;-71
2024/02/25 01:01:14;;;;;;;2.97;2.75;;;3.80;99.90;;;;;;476537;249;28032;-71
2024/02/25 01:03:08;;;;;;;3.45;2.53;;;3.80;99.90;;;;;;476041;249;28227;-71
2024/02/25 01:05:09;;;;;;;3.65;2.47;;;3.70;99.90;;;;;;476541;249;27585;-71
2024/02/25 01:07:10;;;;;;;2.35;2.12;;;3.70;99.90;;;;;;476551;249;27534;-71
2024/02/25 01:09:12;;;;;;;3.37;2.30;;;3.80;99.90;;;;;;476704;249;27674;-72
2024/02/25 01:11:13;;;;;;;2.20;2.00;;;3.80;99.90;;;;;;476531;249;27549;-71
2024/02/25 01:13:14;;;;;;;2.12;2.00;;;3.80;99.90;;;;;;476668;246;27574;-71
2024/02/25 01:15:15;;;;;;;3.22;2.62;;;3.90;99.90;;;;;;476732;249;27971;-72
2024/02/25 01:17:17;;;;;;;2.15;2.00;;;3.90;99.90;;;;;;476615;249;27625;-71
2024/02/25 01:19:20;;;;;;;3.12;2.30;;;3.90;99.90;;;;;;476629;249;27633;-71
2024/02/25 01:21:19;;;;;;;2.83;2.10;;;4.00;99.90;;;;;;476493;249;27505;-71
2024/02/25 01:23:20;;;;;;;2.35;2.12;;;4.00;99.90;;;;;;476660;249;28175;-71
2024/02/25 01:25:22;;;;;;;2.70;2.50;;;3.90;99.90;;;;;;476754;249;28039;-73
2024/02/25 01:27:23;;;;;;;2.40;2.20;;;3.90;99.90;;;;;;476587;249;28079;-71
2024/02/25 01:29:24;;;;;;;2.05;1.90;;;3.90;99.90;;;;;;476678;249;28037;-71
2024/02/25 01:31:25;;;;;;;2.47;2.03;;;3.90;99.90;;;;;;474255;249;27431;-70
2024/02/25 01:33:27;;;;;;;3.22;2.10;;;3.90;99.90;;;;;;472847;251;27495;-70
2024/02/25 01:35:28;;;;;;;2.20;2.00;;;3.90;99.90;;;;;;472990;251;27458;-72
2024/02/25 01:37:30;;;;;;;2.50;2.03;;;3.90;99.90;;;;;;472929;251;27423;-71
2024/02/25 01:39:30;;;;;;;2.42;2.10;;;3.80;99.90;;;;;;472791;251;27564;-73
2024/02/25 01:41:32;;;;;;;2.45;2.25;;;3.90;99.90;;;;;;472887;251;27490;-75
2024/02/25 01:43:39;;;;;;;2.10;2.00;;;3.80;99.90;;;;;;472999;251;27433;-71
2024/02/25 01:45:37;;;;;;;2.50;2.30;;;3.80;99.90;;;;;;472681;251;27407;-71
2024/02/25 01:47:38;;;;;;;2.20;2.05;;;3.80;99.90;;;;;;472846;251;27588;-72
2024/02/25 01:49:40;;;;;;;3.00;2.30;;;3.90;99.90;;;;;;472736;251;27887;-71
2024/02/25 01:51:41;;;;;;;2.55;1.90;;;3.80;99.90;;;;;;472947;251;28050;-72
2024/02/25 01:53:42;;;;;;;3.90;2.28;;;3.80;99.90;;;;;;472949;251;27949;-73
2024/02/25 01:55:49;;;;;;;2.65;2.45;;;3.80;99.90;;;;;;472942;251;27872;-71
2024/02/25 01:57:45;;;;;;;2.47;2.30;;;3.80;99.90;;;;;;472469;251;27505;-72
2024/02/25 01:59:46;;;;;;;3.90;2.90;;;3.80;99.90;;;;;;472939;251;27538;-72
2024/02/25 02:01:47;;;;;;;2.95;2.30;;;3.80;99.90;;;;;;472975;251;27458;-71
2024/02/25 02:03:48;;;;;;;2.45;2.25;;;3.80;99.90;;;;;;472913;251;27944;-73
2024/02/25 02:05:50;;;;;;;2.37;2.17;;;3.80;99.90;;;;;;472942;251;27419;-72
2024/02/25 02:07:51;;;;;;;2.60;2.17;;;3.80;99.90;;;;;;472887;251;27550;-72
2024/02/25 02:09:52;;;;;;;2.55;2.30;;;3.90;99.90;;;;;;472982;251;27420;-72
2024/02/25 02:11:53;;;;;;;2.50;2.30;;;3.90;99.90;;;;;;472914;251;27460;-72
2024/02/25 02:13:55;;;;;;;5.03;2.90;;;3.80;99.90;;;;;;472964;251;28067;-73
2024/02/25 02:15:56;;;;;;;2.10;2.00;;;3.80;99.90;;;;;;472895;251;27931;-72
2024/02/25 02:17:57;;;;;;;2.70;2.50;;;3.80;99.90;;;;;;472726;251;28056;-71
2024/02/25 02:20:00;;;;;;;2.40;2.15;;;3.80;99.90;;;;;;472982;251;27464;-71
2024/02/25 02:22:00;;;;;;;2.42;2.20;;;3.80;99.90;;;;;;472832;251;27558;-71
2024/02/25 02:24:01;;;;;;;2.72;2.53;;;3.80;99.90;;;;;;472777;251;27462;-73
2024/02/25 02:26:02;;;;;;;3.78;2.30;;;3.80;99.90;;;;;;472902;251;27484;-71
2024/02/25 02:28:03;;;;;;;2.25;2.10;;;3.90;99.90;;;;;;472818;251;27451;-72
2024/02/25 02:30:05;;;;;;;3.42;2.50;;;3.80;99.90;;;;;;472952;251;27472;-72
2024/02/25 02:32:06;;;;;;;3.08;2.35;;;3.80;99.90;;;;;;472963;251;27573;-71
2024/02/25 02:34:07;;;;;;;2.78;2.25;;;3.80;99.90;;;;;;472830;251;27530;-71
2024/02/25 02:36:10;;;;;;;2.67;2.47;;;3.70;99.90;;;;;;472935;251;27518;-71
2024/02/25 02:38:10;;;;;;;2.70;2.50;;;3.70;99.90;;;;;;472839;251;28015;-72
2024/02/25 02:40:11;;;;;;;2.58;2.30;;;3.70;99.90;;;;;;472861;251;28126;-72
2024/02/25 02:42:12;;;;;;;2.58;2.37;;;3.70;99.90;;;;;;472873;251;27988;-72
2024/02/25 02:44:13;;;;;;;2.75;2.55;;;3.60;99.90;;;;;;472919;251;27486;-72
2024/02/25 02:46:15;;;;;;;2.87;2.22;;;3.60;99.90;;;;;;472951;251;27439;-71
2024/02/25 02:48:16;;;;;;;3.37;2.70;;;3.60;99.90;;;;;;472933;251;27506;-72
2024/02/25 02:50:17;;;;;;;2.53;2.33;;;3.60;99.90;;;;;;472963;251;27464;-73
2024/02/25 02:52:18;;;;;;;2.60;2.10;;;3.60;99.90;;;;;;472939;251;27422;-72
2024/02/25 02:54:20;;;;;;;2.10;2.00;;;3.60;99.90;;;;;;472939;251;27542;-72
2024/02/25 02:56:21;;;;;;;3.10;2.47;;;3.60;99.90;;;;;;472925;251;27846;-73
2024/02/25 02:58:22;;;;;;;2.97;2.67;;;3.60;99.90;;;;;;472803;251;27427;-73
2024/02/25 03:00:23;;;;;;;3.75;2.65;;;3.60;99.90;;;;;;472918;251;27519;-72
2024/02/25 03:02:25;;;;;;;2.60;2.40;;;3.70;99.90;;;;;;472740;251;27424;-71
2024/02/25 03:04:26;;;;;;;2.67;2.47;;;3.70;99.90;;;;;;472821;251;27954;-72
2024/02/25 03:06:27;;;;;;;2.72;2.47;;;3.70;99.90;;;;;;472887;251;29117;-72
2024/02/25 03:08:28;;;;;;;2.50;2.30;;;3.60;99.90;;;;;;472913;251;27900;-71
2024/02/25 03:10:30;;;;;;;3.30;2.62;;;3.60;99.90;;;;;;472942;251;27487;-72
2024/02/25 03:12:31;;;;;;;3.33;2.62;;;3.70;99.90;;;;;;472903;251;27580;-71
2024/02/25 03:14:32;;;;;;;2.42;2.22;;;3.70;99.90;;;;;;472965;251;27514;-72
2024/02/25 03:16:33;;;;;;;3.30;2.40;;;3.80;99.90;;;;;;472938;251;27559;-73
2024/02/25 03:18:36;;;;;;;6.47;2.50;;;3.90;99.90;;;;;;472895;251;27431;-72
2024/02/25 03:20:36;;;;;;;4.10;3.70;;;3.90;99.90;;;;;;472861;251;27495;-72
2024/02/25 03:22:37;;;;;;;4.80;4.25;;;3.90;99.90;;;;;;473020;251;27533;-73
2024/02/25 03:24:39;;;;;;;8.35;6.22;;;4.00;99.90;;;;;;473008;251;27431;-72
2024/02/25 03:26:40;;;;;;;5.70;3.85;;;4.10;99.90;;;;;;472911;251;27559;-72
2024/02/25 03:28:41;;;;;;;2.05;1.95;;;4.10;99.90;;;;;;472965;251;27891;-71
2024/02/25 03:30:42;;;;;;;2.65;2.33;;;4.10;99.90;;;;;;472805;251;28795;-72
2024/02/25 03:32:43;;;;;;;2.50;2.30;;;4.20;99.90;;;;;;473030;251;28100;-75
2024/02/25 03:34:45;;;;;;;2.22;2.10;;;4.20;99.90;;;;;;472986;251;27407;-73
2024/02/25 03:36:46;;;;;;;4.32;2.42;;;4.20;99.90;;;;;;472869;251;27470;-74
2024/02/25 03:38:47;;;;;;;2.90;2.45;;;4.30;99.90;;;;;;472894;251;27502;-70
2024/02/25 03:40:48;;;;;;;2.70;2.40;;;4.30;99.90;;;;;;472939;251;27455;-71
2024/02/25 03:42:50;;;;;;;2.60;2.35;;;4.30;99.90;;;;;;472936;251;27565;-72
2024/02/25 03:44:51;;;;;;;3.08;2.20;;;4.30;99.90;;;;;;472935;251;27510;-71
2024/02/25 03:46:52;;;;;;;2.42;2.28;;;4.30;99.90;;;;;;472911;251;27489;-73
2024/02/25 03:48:53;;;;;;;2.15;1.95;;;4.30;99.90;;;;;;472745;251;27530;-71
2024/02/25 03:50:55;;;;;;;2.00;1.90;;;4.20;99.90;;;;;;472934;251;27904;-73
2024/02/25 03:52:56;;;;;;;2.37;1.73;;;4.20;99.90;;;;;;472942;251;28133;-75
2024/02/25 03:54:57;;;;;;;2.12;1.98;;;4.10;99.90;;;;;;472894;251;29158;-73
2024/02/25 03:56:58;;;;;;;2.10;1.95;;;4.10;99.90;;;;;;472834;251;27478;-71
2024/02/25 03:59:00;;;;;;;3.05;2.30;;;4.00;99.90;;;;;;472986;251;27563;-70
2024/02/25 04:01:01;;;;;;;3.05;1.90;;;4.00;99.90;;;;;;472970;251;27420;-71
2024/02/25 04:03:02;;;;;;;2.42;1.80;;;4.00;99.90;;;;;;472774;251;27526;-72
2024/02/25 04:05:03;;;;;;;2.65;1.75;;;3.90;99.90;;;;;;472973;251;27493;-71
2024/02/25 04:07:05;;;;;;;1.80;1.70;;;3.90;99.90;;;;;;472936;251;27463;-71
2024/02/25 04:09:06;;;;;;;4.03;1.95;;;3.90;99.90;;;;;;472990;251;27860;-72
2024/02/25 04:11:07;;;;;;;2.15;2.00;;;3.80;99.90;;;;;;472886;251;27566;-71
2024/02/25 04:13:09;;;;;;;1.80;1.70;;;3.80;99.90;;;;;;472965;251;27938;-71
2024/02/25 04:15:10;;;;;;;1.60;1.50;;;3.90;99.90;;;;;;472879;251;27894;-71
2024/02/25 04:17:13;;;;;;;1.87;1.70;;;3.90;99.90;;;;;;472885;251;27990;-71
2024/02/25 04:19:12;;;;;;;1.80;1.70;;;3.90;99.90;;;;;;472772;251;27495;-72
2024/02/25 04:21:14;;;;;;;1.83;1.70;;;3.90;99.90;;;;;;472900;251;27419;-71
2024/02/25 04:23:15;;;;;;;1.70;1.60;;;3.80;99.90;;;;;;472856;251;27456;-72
2024/02/25 04:25:16;;;;;;;1.67;1.58;;;3.90;99.90;;;;;;472900;251;27450;-70
2024/02/25 04:27:17;;;;;;;2.40;1.85;;;3.90;99.90;;;;;;472934;251;27503;-70
2024/02/25 04:29:19;;;;;;;3.45;1.85;;;3.80;99.90;;;;;;472799;251;27594;-71
2024/02/25 04:31:20;;;;;;;3.17;1.60;;;3.80;99.90;;;;;;472976;251;27503;-71
2024/02/25 04:33:21;;;;;;;3.05;1.60;;;3.80;99.90;;;;;;472918;251;27571;-70
2024/02/25 04:35:23;;;;;;;1.45;1.35;;;3.90;99.90;;;;;;472983;251;28000;-72
2024/02/25 04:37:24;;;;;;;1.60;1.48;;;3.90;99.90;;;;;;472910;251;27441;-71
2024/02/25 04:39:25;;;;;;;1.70;1.60;;;3.90;99.90;;;;;;472944;251;27483;-72
2024/02/25 04:41:26;;;;;;;1.80;1.70;;;3.90;99.90;;;;;;472853;251;27507;-74
2024/02/25 04:43:27;;;;;;;1.70;1.60;;;3.90;99.90;;;;;;472675;251;27468;-71
2024/02/25 04:45:29;;;;;;;1.75;1.62;;;3.90;99.90;;;;;;472927;251;28006;-72
2024/02/25 04:47:31;;;;;;;1.73;1.50;;;3.90;99.90;;;;;;472877;251;27954;-71
2024/02/25 04:49:31;;;;;;;1.90;1.80;;;3.90;99.90;;;;;;472634;251;27954;-71
2024/02/25 04:51:33;;;;;;;2.75;1.67;;;3.90;99.90;;;;;;472857;251;28021;-71
2024/02/25 04:53:34;;;;;;;2.22;1.73;;;4.00;99.90;;;;;;472897;251;27435;-73
2024/02/25 04:55:35;;;;;;;1.50;1.40;;;4.00;99.90;;;;;;472889;251;27475;-72
2024/02/25 04:57:37;;;;;;;2.08;1.70;;;4.00;99.90;;;;;;472910;251;27546;-72
2024/02/25 04:59:37;;;;;;;1.60;1.50;;;4.00;99.90;;;;;;472607;251;27463;-72
2024/02/25 05:01:40;;;;;;;2.28;1.50;;;4.00;99.90;;;;;;472957;251;27669;-72
2024/02/25 05:03:42;;;;;;;1.58;1.48;;;4.00;99.90;;;;;;472977;251;27535;-72
2024/02/25 05:05:43;;;;;;;1.70;1.60;;;4.00;99.90;;;;;;472976;251;27475;-73
2024/02/25 05:07:44;;;;;;;1.62;1.52;;;4.00;99.90;;;;;;472934;251;27986;-72
2024/02/25 05:09:45;;;;;;;2.62;1.60;;;3.90;99.90;;;;;;472887;251;28365;-72
2024/02/25 05:11:47;;;;;;;1.98;1.77;;;4.00;99.90;;;;;;472907;251;28060;-72
2024/02/25 05:13:50;;;;;;;3.58;1.60;;;4.00;99.90;;;;;;472953;251;27487;-71
2024/02/25 05:15:49;;;;;;;2.00;1.80;;;4.00;99.90;;;;;;472832;251;27486;-72
2024/02/25 05:17:50;;;;;;;1.75;1.65;;;4.10;99.90;;;;;;472913;251;27507;-71
2024/02/25 05:19:52;;;;;;;1.70;1.60;;;4.10;99.90;;;;;;472941;251;27467;-71
2024/02/25 05:21:53;;;;;;;1.40;1.30;;;4.10;99.90;;;;;;472957;251;27904;-73
2024/02/25 05:23:57;;;;;;;1.45;1.35;;;4.20;99.90;;;;;;472933;251;27450;-70
2024/02/25 05:25:56;;;;;;;2.95;1.90;;;4.10;99.90;;;;;;472644;251;27554;-74
2024/02/25 05:27:57;;;;;;;4.10;1.48;;;4.20;99.90;;;;;;472902;251;28105;-76
2024/02/25 05:29:58;;;;;;;2.10;1.50;;;4.20;99.90;;;;;;472892;251;27887;-74
2024/02/25 05:31:59;;;;;;;1.55;1.45;;;4.20;99.90;;;;;;472848;251;27534;-74
2024/02/25 05:34:01;;;;;;;2.17;1.62;;;4.20;99.90;;;;;;472914;251;27439;-71
2024/02/25 05:36:02;;;;;;;1.45;1.35;;;4.20;99.90;;;;;;472932;251;27463;-74
2024/02/25 05:38:03;;;;;;;2.65;1.60;;;4.20;99.90;;;;;;472856;251;27530;-72
2024/02/25 05:40:04;;;;;;;1.50;1.40;;;4.20;99.90;;;;;;472944;251;27483;-71
2024/02/25 05:42:06;;;;;;;2.17;1.52;;;4.20;99.90;;;;;;472916;251;27574;-71
2024/02/25 05:44:07;;;;;;;1.52;1.42;;;4.20;99.90;;;;;;472942;251;27423;-70
2024/02/25 05:46:08;;;;;;;1.73;1.30;;;4.20;99.90;;;;;;473000;251;27503;-74
2024/02/25 05:48:09;;;;;;;1.50;1.40;;;4.20;99.90;;;;;;472956;251;27970;-74
2024/02/25 05:50:11;;;;;;;1.15;1.15;;;4.20;99.90;;;;;;472911;251;27997;-72
2024/02/25 05:52:12;;;;;;;1.83;1.73;;;4.00;99.90;;;;;;472989;251;27530;-74
2024/02/25 05:54:13;;;;;;;4.20;1.70;;;4.10;99.90;;;;;;473013;251;27456;-72
2024/02/25 05:56:14;;;;;;;1.60;1.50;;;4.10;99.90;;;;;;472960;251;27492;-73
2024/02/25 05:58:17;;;;;;;2.20;1.35;;;4.10;99.90;;;;;;472946;251;27467;-73
2024/02/25 06:00:18;;;;;;;1.67;1.58;;;4.10;99.90;;;;;;473008;251;27481;-73
2024/02/25 06:02:20;;;;;;;2.10;1.40;;;4.10;99.90;;;;;;472953;251;27543;-74
2024/02/25 06:04:21;;;;;;;1.60;1.50;;;4.10;99.90;;;;;;472981;251;27987;-73
2024/02/25 06:06:22;;;;;;;2.45;1.67;;;4.00;99.90;;;;;;472974;251;28077;-73
2024/02/25 06:08:24;;;;;;;1.87;1.65;;;4.10;99.90;;;;;;472914;251;28649;-73
2024/02/25 06:10:25;;;;;;;1.80;1.70;;;4.10;99.90;;;;;;472868;251;27424;-73
2024/02/25 06:12:29;;;;;;;1.55;1.45;;;4.10;99.90;;;;;;472949;251;27491;-73
2024/02/25 06:14:29;;;;;;;1.70;1.60;;;4.10;99.90;;;;;;472799;251;27570;-73
2024/02/25 06:16:32;;;;;;;1.40;1.40;;;4.10;99.90;;;;;;472971;251;27945;-74
2024/02/25 06:18:31;;;;;;;2.95;1.60;;;4.10;99.90;;;;;;472758;251;27976;-74
2024/02/25 06:20:32;;;;;;;1.58;1.48;;;4.10;99.90;;;;;;472976;251;28090;-73
2024/02/25 06:22:34;;;;;;;3.20;1.52;;;4.10;99.90;;;;;;472957;251;27474;-73
2024/02/25 06:24:35;;;;;;;1.50;1.40;;;4.20;99.90;;;;;;472919;251;27417;-73
2024/02/25 06:26:36;;;;;;;1.60;1.50;;;4.20;99.90;;;;;;472900;251;27570;-73
2024/02/25 06:28:37;;;;;;;1.30;1.30;;;4.20;99.90;;;;;;472885;251;27449;-72
2024/02/25 06:30:39;;;;;;;1.70;1.60;;;4.20;99.90;;;;;;472893;251;27546;-71
2024/02/25 06:32:42;;;;;;;1.35;1.25;;;4.30;99.90;;;;;;472934;251;27590;-75
2024/02/25 06:34:43;;;;;;;1.55;1.45;;;4.20;99.90;;;;;;472823;251;27559;-73
2024/02/25 06:36:44;;;;;;;1.65;1.55;;;4.30;99.90;;;;;;472758;251;27972;-74
2024/02/25 06:38:46;;;;;;;1.40;1.30;;;4.30;99.90;;;;;;472897;251;27903;-73
2024/02/25 06:40:47;;;;;;;2.08;1.98;;;4.30;99.90;;;;;;472826;251;28051;-74
2024/02/25 06:42:48;;;;;;;2.05;1.55;;;4.30;99.90;;;;;;472895;251;27467;-73
2024/02/25 06:44:49;;;;;;;1.75;1.65;;;4.30;99.90;;;;;;473031;251;27431;-73
2024/02/25 06:46:51;;;;;;;1.45;1.35;;;4.30;99.90;;;;;;472850;251;27478;-75
2024/02/25 06:48:52;;;;;;;1.73;1.62;;;4.30;99.90;;;;;;472878;251;27508;-73
2024/02/25 06:50:53;;;;;;;1.65;1.30;;;4.30;99.90;;;;;;472962;251;27490;-73
2024/02/25 06:52:54;;;;;;;2.05;1.40;;;4.30;99.90;;;;;;473013;251;27490;-75
2024/02/25 06:54:55;;;;;;;1.60;1.50;;;4.20;99.90;;;;;;472886;251;27427;-74
2024/02/25 06:56:57;;;;;;;1.67;1.58;;;4.20;99.90;;;;;;472923;251;28679;-73
2024/02/25 06:58:58;;;;;;;1.70;1.50;;;4.30;99.90;;;;;;475644;249;27908;-73
2024/02/25 07:00:59;;;;;;;4.70;1.50;;;4.30;99.90;;;;;;476634;249;27976;-73
2024/02/25 07:03:00;;;;;;;1.50;1.40;;;4.30;99.90;;;;;;476699;245;27569;-73
2024/02/25 07:05:02;;;;;;;2.00;1.40;;;4.40;99.90;;;;;;476725;249;27513;-73
2024/02/25 07:07:03;;;;;;;11.48;6.15;;;4.30;99.90;;;;;;476487;249;27640;-71
2024/02/25 07:09:04;;;;;;;4.87;3.10;;;4.20;99.90;;;;;;476603;249;27525;-71
2024/02/25 07:11:05;;;;;;;5.57;3.70;;;4.20;99.90;;;;;;476713;246;27540;-71
2024/02/25 07:13:07;;;;;;;15.13;12.90;;;4.20;99.90;;;;;;476658;249;27584;-71
2024/02/25 07:15:08;;;;;;;4.62;3.95;;;4.40;99.90;;;;;;476683;249;28022;-72
2024/02/25 07:17:10;;;;;;;5.05;4.65;;;4.40;99.90;;;;;;476624;249;27549;-71
2024/02/25 07:19:10;;;;;;;3.58;3.33;;;4.40;99.90;;;;;;476738;249;27576;-76
2024/02/25 07:21:13;;;;;;;2.42;1.62;;;4.50;99.90;;;;;;476697;249;27561;-73
2024/02/25 07:23:13;;;;;;;2.72;2.53;;;4.50;99.90;;;;;;476498;249;27664;-73
2024/02/25 07:25:14;;;;;;;3.10;2.37;;;4.60;99.90;;;;;;476568;246;27610;-71
2024/02/25 07:27:15;;;;;;;2.17;2.05;;;4.60;99.90;;;;;;476656;249;27569;-71
2024/02/25 07:29:17;;;;;;;1.67;1.58;;;4.70;99.90;;;;;;476695;249;27989;-72
2024/02/25 07:31:18;;;;;;;2.15;1.75;;;4.70;99.90;;;;;;476647;249;27987;-72
2024/02/25 07:33:19;;;;;;;1.80;1.48;;;4.70;99.90;;;;;;476682;249;28022;-74
2024/02/25 07:35:21;;;;;;;1.70;1.60;;;4.80;99.90;;;;;;476637;249;27854;-72
2024/02/25 07:37:22;;;;;;;3.60;2.00;;;4.80;99.90;;;;;;476552;249;27607;-72
2024/02/25 07:39:23;;;;;;;2.08;1.55;;;4.80;99.90;;;;;;476699;249;27582;-72
2024/02/25 07:41:24;;;;;;;1.20;1.20;;;4.80;99.90;;;;;;476685;249;27556;-73
2024/02/25 07:43:25;;;;;;;1.50;1.40;;;4.90;99.90;;;;;;476640;249;27665;-73
2024/02/25 07:45:27;;;;;;;1.92;1.70;;;4.90;99.90;;;;;;476716;245;27571;-72
2024/02/25 07:47:28;;;;;;;2.03;1.92;;;4.90;99.90;;;;;;476648;249;27652;-71
2024/02/25 07:49:29;;;;;;;1.55;1.25;;;4.90;99.90;;;;;;476656;249;28067;-71
2024/02/25 07:51:31;;;;;;;2.08;1.50;;;4.90;99.90;;;;;;476615;249;28163;-73
2024/02/25 07:53:32;;;;;;;1.60;1.50;;;4.90;99.90;;;;;;476660;249;27567;-74
2024/02/25 07:55:33;;;;;;;4.20;3.80;;;5.00;99.90;;;;;;476718;249;27685;-75
2024/02/25 07:57:35;;;;;;;2.45;2.00;;;4.90;99.90;;;;;;476620;249;27519;-71
2024/02/25 07:59:36;;;;;;;1.80;1.70;;;5.00;99.90;;;;;;476693;249;27576;-72
2024/02/25 08:01:37;;;;;;;2.67;2.35;;;5.00;99.90;;;;;;476664;249;27602;-71
2024/02/25 08:03:38;;;;;;;2.55;2.15;;;5.10;99.90;;;;;;476715;249;27611;-74
2024/02/25 08:05:39;;;;;;;3.15;2.90;;;5.00;99.90;;;;;;476565;249;28011;-72
2024/02/25 08:07:44;;;;;;;2.50;2.30;;;5.00;99.90;;;;;;476525;249;27938;-71
2024/02/25 08:09:42;;;;;;;3.50;3.20;;;5.10;99.90;;;;;;476151;245;28061;-73
2024/02/25 08:11:43;;;;;;;2.80;2.47;;;5.10;99.90;;;;;;476530;249;27577;-71
2024/02/25 08:13:44;;;;;;;1.87;1.77;;;5.10;99.90;;;;;;476542;249;27543;-72
2024/02/25 08:15:46;;;;;;;2.22;1.62;;;5.20;99.90;;;;;;476562;249;27567;-72
2024/02/25 08:17:47;;;;;;;1.80;1.70;;;5.20;99.90;;;;;;476533;249;27565;-74
2024/02/25 08:19:48;;;;;;;4.50;2.05;;;5.10;99.90;;;;;;476467;249;27646;-71
2024/02/25 08:21:49;;;;;;;2.70;2.50;;;5.10;99.90;;;;;;476593;249;28248;-71
2024/02/25 08:23:51;;;;;;;2.65;2.45;;;5.10;99.90;;;;;;476382;249;27960;-74
2024/02/25 08:25:52;;;;;;;4.15;2.00;;;5.10;99.90;;;;;;476354;249;27503;-72
2024/02/25 08:27:53;;;;;;;1.80;1.70;;;5.20;99.90;;;;;;476609;249;27522;-70
2024/02/25 08:29:54;;;;;;;2.55;2.35;;;5.20;99.90;;;;;;476688;249;27661;-71
2024/02/25 08:31:56;;;;;;;2.67;1.95;;;5.20;99.90;;;;;;476679;245;27692;-74
2024/02/25 08:33:57;;;;;;;2.20;1.83;;;5.20;99.90;;;;;;476633;249;27566;-71
2024/02/25 08:35:58;;;;;;;1.95;1.85;;;5.20;99.90;;;;;;476635;249;28126;-72
2024/02/25 08:37:59;;;;;;;3.12;2.40;;;5.30;99.90;;;;;;476604;249;29983;-74
2024/02/25 08:40:01;;;;;;;19.45;16.77;;;5.30;99.90;;;;;;476639;249;27519;-73
2024/02/25 08:42:02;;;;;;;8.43;7.72;;;5.30;99.90;;;;;;476507;249;27562;-71
2024/02/25 08:44:03;;;;;;;6.25;5.75;;;5.40;99.90;;;;;;476620;249;27533;-73
2024/02/25 08:46:04;;;;;;;2.37;2.12;;;5.40;99.90;;;;;;476610;247;27580;-74
2024/02/25 08:48:06;;;;;;;1.95;1.85;;;5.40;99.90;;;;;;476605;247;27657;-74
2024/02/25 08:50:07;;;;;;;2.65;2.45;;;5.30;99.90;;;;;;476669;246;28076;-73
2024/02/25 08:52:08;;;;;;;1.87;1.77;;;5.30;99.90;;;;;;476612;249;28076;-73
2024/02/25 08:54:09;;;;;;;1.50;1.40;;;5.30;99.90;;;;;;476594;249;27526;-73
2024/02/25 08:56:11;;;;;;;2.22;2.05;;;5.40;99.90;;;;;;476677;249;27529;-73
2024/02/25 08:58:12;;;;;;;1.80;1.70;;;5.40;99.90;;;;;;476644;249;27558;-74
2024/02/25 09:00:13;;;;;;;1.95;1.58;;;5.50;99.90;;;;;;476689;249;27525;-74
2024/02/25 09:02:15;;;;;;;3.22;2.85;;;5.50;99.90;;;;;;476565;249;27593;-73
2024/02/25 09:04:16;;;;;;;2.83;1.67;;;5.60;99.90;;;;;;476688;249;27659;-73
2024/02/25 09:06:17;;;;;;;1.98;1.87;;;5.60;99.90;;;;;;476702;249;28054;-71
2024/02/25 09:08:20;;;;;;;2.55;1.40;;;5.70;99.90;;;;;;476632;249;28042;-74
2024/02/25 09:10:20;;;;;;;1.80;1.70;;;5.80;99.90;;;;;;476495;249;27552;-70
2024/02/25 09:12:21;;;;;;;1.40;1.40;;;5.90;99.90;;;;;;476625;249;27593;-71
2024/02/25 09:14:22;;;;;;;2.00;1.55;;;6.00;99.90;;;;;;476696;249;27911;-74
2024/02/25 09:16:23;;;;;;;1.17;1.12;;;6.00;99.90;;;;;;476728;249;27641;-73
2024/02/25 09:18:25;;;;;;;1.70;1.50;;;6.10;99.90;;;;;;476625;249;28136;-74
2024/02/25 09:20:29;;;;;;;3.70;3.37;;;6.10;99.90;;;;;;477787;247;28008;-73
2024/02/25 09:22:27;;;;;;;2.58;2.37;;;6.10;99.90;;;;;;476352;249;29029;-72
2024/02/25 09:24:28;;;;;;;3.90;3.33;;;6.10;99.90;;;;;;476605;249;27523;-74
2024/02/25 09:26:30;;;;;;;5.80;4.50;;;6.10;99.90;;;;;;476578;249;28248;-74
2024/02/25 09:28:31;;;;;;;3.13;2.83;;;6.10;99.90;;;;;;482828;246;28869;-74
2024/02/25 09:30:32;;;;;;;4.87;4.47;;;6.10;99.90;;;;;;482839;246;28864;-73
2024/02/25 09:32:35;;;;;;;5.78;2.75;;;6.20;99.90;;;;;;482887;246;27769;-73
2024/02/25 09:34:35;;;;;;;2.90;2.53;;;6.50;99.90;;;;;;482766;246;27419;-73
2024/02/25 09:36:36;;;;;;;1.67;1.57;;;6.60;99.90;;;;;;484377;244;28781;-73
2024/02/25 09:38:37;;;;;;;3.13;2.93;;;6.70;99.90;;;;;;484364;244;28877;-74
2024/02/25 09:40:38;;;;;;;2.63;2.50;;;6.80;99.90;;;;;;482798;246;28069;-75
2024/02/25 09:42:40;;;;;;;1.40;1.30;;;6.80;99.90;;;;;;482715;246;28388;-73
2024/02/25 09:44:41;;;;;;;2.90;2.23;;;6.80;99.90;;;;;;482790;246;28469;-73
2024/02/25 09:46:42;;;;;;;2.27;2.00;;;6.70;99.90;;;;;;482727;246;28191;-73
2024/02/25 09:48:43;;;;;;;1.67;1.67;;;6.60;99.90;;;;;;482696;246;28417;-73
2024/02/25 09:50:45;;;;;;;3.60;3.30;;;6.60;99.90;;;;;;486116;244;28427;-74
2024/02/25 09:52:49;;;;;;;3.93;3.63;;;6.70;99.90;;;;;;487755;244;27984;-73
2024/02/25 09:54:50;;;;;;;11.03;9.90;;;6.70;99.90;;;;;;486769;244;27940;-72
2024/02/25 09:56:51;;;;;;;3.10;2.83;;;6.70;99.90;;;;;;487680;244;27878;-73
2024/02/25 09:58:53;;;;;;;2.10;1.90;;;6.70;99.90;;;;;;478023;249;27942;-73
2024/02/25 10:00:54;;;;;;;1.60;1.50;;;6.70;99.90;;;;;;487790;244;27811;-73
2024/02/25 10:02:55;;;;;;;2.30;2.17;;;6.50;99.90;;;;;;486668;244;27868;-74
2024/02/25 10:04:56;;;;;;;6.43;4.90;;;6.60;99.90;;;;;;487664;244;27807;-73
2024/02/25 10:06:58;;;;;;;5.10;4.60;;;6.60;99.90;;;;;;486656;244;28077;-73
2024/02/25 10:08:59;;;;;;;3.10;2.20;;;6.50;99.90;;;;;;487770;244;28345;-75
2024/02/25 10:11:00;;;;;;;7.70;6.40;;;6.40;99.90;;;;;;486716;244;27619;-71
2024/02/25 10:13:01;;;;;;;4.20;2.57;;;6.50;99.90;;;;;;487733;244;27572;-72
2024/02/25 10:15:03;;;;;;;1.57;1.47;;;6.40;99.90;;;;;;486787;243;27984;-71
2024/02/25 10:17:04;;;;;;;1.90;1.37;;;6.40;99.90;;;;;;487718;244;27583;-73
2024/02/25 10:19:05;;;;;;;1.90;1.80;;;6.30;99.90;;;;;;486628;244;28478;-74
2024/02/25 10:21:06;;;;;;;1.97;1.87;;;6.30;99.90;;;;;;487763;244;28431;-73
2024/02/25 10:23:08;;;;;;;3.43;1.90;;;6.40;99.90;;;;;;486639;244;28655;-74
2024/02/25 10:25:09;;;;;;;2.00;1.80;;;6.60;99.90;;;;;;487738;244;31008;-71
2024/02/25 10:27:10;;;;;;;2.87;1.70;;;6.90;99.90;;;;;;486696;244;28416;-75
2024/02/25 10:29:13;;;;;;;1.93;1.67;;;6.90;99.90;;;;;;487790;244;27953;-76
2024/02/25 10:31:15;;;;;;;2.00;1.73;;;6.80;99.90;;;;;;484955;242;28883;-73
2024/02/25 10:33:17;;;;;;;2.47;1.70;;;6.80;99.90;;;;;;481777;245;29161;-73
2024/02/25 10:35:18;;;;;;;1.83;1.40;;;6.80;99.90;;;;;;482087;242;28560;-72
2024/02/25 10:37:20;;;;;;;1.90;1.20;;;6.90;99.90;;;;;;486532;241;29196;-73
2024/02/25 10:39:20;;;;;;;3.03;1.20;;;7.10;99.90;;;;;;487168;241;28001;-74